Time;durP1;ratioP1;P1;durP2;ratioP2;P2;SDS_P1;SDS_P2;PMS_P1;PMS_P2;Temp;Humidity;BMP_temperature;BMP_pressure;BME280_temperature;BME280_humidity;BME280_pressure;Samples;Min_cycle;Max_cycle;Signal;HPM_P1;HPM_P2
2022/05/26 00:02:23;;;;;;;1.40;1.30;;;21.40;39.20;;;;;;5013694;28;20116;-64
2022/05/26 00:04:49;;;;;;;1.30;1.20;;;21.30;39.20;;;;;;5014997;28;20361;-64
2022/05/26 00:07:15;;;;;;;1.48;1.38;;;21.30;39.30;;;;;;5015045;28;20092;-63
2022/05/26 00:09:42;;;;;;;1.30;1.20;;;21.30;39.30;;;;;;5013663;28;20048;-63
2022/05/26 00:12:10;;;;;;;1.67;1.20;;;21.30;39.30;;;;;;5013615;28;20030;-63
2022/05/26 00:14:36;;;;;;;2.10;1.40;;;21.30;39.30;;;;;;5014727;28;20040;-63
2022/05/26 00:17:01;;;;;;;1.85;1.60;;;21.30;39.30;;;;;;5014742;28;20025;-63
2022/05/26 00:19:27;;;;;;;1.73;1.45;;;21.30;39.30;;;;;;5014139;28;20101;-63
2022/05/26 00:21:53;;;;;;;1.85;1.60;;;21.30;39.30;;;;;;5028258;28;20087;-63
2022/05/26 00:24:20;;;;;;;1.45;1.35;;;21.20;39.30;;;;;;5034252;28;20061;-63
2022/05/26 00:26:46;;;;;;;3.30;1.50;;;21.20;39.30;;;;;;5034412;28;20045;-63
2022/05/26 00:29:12;;;;;;;2.03;1.52;;;21.20;39.40;;;;;;5032703;28;20443;-63
2022/05/26 00:31:38;;;;;;;1.13;1.13;;;21.20;39.30;;;;;;5033212;28;20029;-63
2022/05/26 00:34:04;;;;;;;1.75;1.50;;;21.20;39.40;;;;;;5032808;28;20029;-64
2022/05/26 00:36:41;;;;;;;1.60;1.50;;;21.20;39.30;;;;;;5034278;28;20037;-63
2022/05/26 00:39:22;;;;;;;2.60;1.40;;;21.20;39.40;;;;;;5033543;28;20418;-63
2022/05/26 00:41:55;;;;;;;1.70;1.60;;;21.20;39.40;;;;;;5033269;28;20021;-63
2022/05/26 00:44:21;;;;;;;1.40;1.30;;;21.20;39.40;;;;;;5033971;28;20059;-64
2022/05/26 00:46:52;;;;;;;2.33;1.35;;;21.20;39.40;;;;;;5032749;28;20439;-62
2022/05/26 00:49:40;;;;;;;1.48;1.20;;;21.10;39.40;;;;;;5034161;28;20030;-63
2022/05/26 00:52:11;;;;;;;1.55;1.45;;;21.10;39.40;;;;;;5032824;28;20029;-63
2022/05/26 00:54:38;;;;;;;1.55;1.40;;;21.10;39.40;;;;;;5033998;28;20080;-62
2022/05/26 00:57:14;;;;;;;1.38;1.27;;;21.10;39.40;;;;;;5032651;28;20030;-63
2022/05/26 00:59:47;;;;;;;3.00;1.27;;;21.10;39.40;;;;;;5034102;28;20025;-63
2022/05/26 01:02:15;;;;;;;2.38;1.23;;;21.10;39.40;;;;;;5033782;28;20080;-63
2022/05/26 01:04:50;;;;;;;2.28;1.40;;;21.10;39.40;;;;;;5033260;28;20102;-63
2022/05/26 01:07:24;;;;;;;1.42;1.30;;;21.10;39.40;;;;;;5033562;28;20051;-63
2022/05/26 01:09:50;;;;;;;3.05;1.30;;;21.00;39.30;;;;;;5033012;28;20025;-64
2022/05/26 01:12:16;;;;;;;1.30;1.20;;;21.00;39.30;;;;;;5032547;28;20415;-63
2022/05/26 01:14:53;;;;;;;1.30;1.20;;;21.00;39.30;;;;;;5032170;28;20061;-63
2022/05/26 01:17:40;;;;;;;1.15;1.15;;;21.00;39.40;;;;;;5033694;28;20158;-63
2022/05/26 01:20:30;;;;;;;1.40;1.30;;;21.00;39.50;;;;;;5033406;28;20468;-63
2022/05/26 01:23:30;;;;;;;1.23;1.10;;;21.00;39.40;;;;;;5032407;28;20538;-63
2022/05/26 01:26:14;;;;;;;1.23;1.20;;;20.90;39.30;;;;;;5033314;28;20056;-63
2022/05/26 01:29:12;;;;;;;1.30;1.25;;;21.00;39.40;;;;;;5033907;28;20037;-63
2022/05/26 01:31:53;;;;;;;1.40;1.30;;;20.90;39.40;;;;;;5032700;28;20037;-63
2022/05/26 01:34:41;;;;;;;1.40;1.20;;;20.90;39.30;;;;;;5033261;28;20073;-64
2022/05/26 01:37:45;;;;;;;1.23;1.15;;;20.90;39.30;;;;;;5032559;28;20029;-63
2022/05/26 01:40:13;;;;;;;3.15;1.17;;;20.90;39.30;;;;;;5033451;28;20061;-63
2022/05/26 01:42:45;;;;;;;1.70;1.40;;;20.90;39.20;;;;;;5033454;28;20479;-63
2022/05/26 01:45:21;;;;;;;1.83;1.45;;;20.90;39.20;;;;;;5033744;28;20018;-63
2022/05/26 01:48:17;;;;;;;1.27;1.20;;;20.90;39.30;;;;;;5033709;28;20033;-63
2022/05/26 01:51:00;;;;;;;2.13;1.40;;;20.90;39.30;;;;;;5032645;28;20025;-63
2022/05/26 01:53:37;;;;;;;1.30;1.15;;;20.90;39.30;;;;;;5033052;28;20034;-63
2022/05/26 01:56:21;;;;;;;2.13;1.30;;;20.80;39.20;;;;;;5033180;28;20431;-63
2022/05/26 01:58:53;;;;;;;1.25;1.25;;;20.90;39.30;;;;;;5033861;28;20363;-64
2022/05/26 02:01:27;;;;;;;2.45;1.20;;;20.90;39.30;;;;;;5033378;28;20036;-63
2022/05/26 02:03:57;;;;;;;2.67;1.23;;;20.80;39.20;;;;;;5033361;28;20030;-63
2022/05/26 02:06:27;;;;;;;1.25;1.15;;;20.90;39.20;;;;;;5033171;28;20030;-63
2022/05/26 02:09:02;;;;;;;1.40;1.30;;;20.80;39.10;;;;;;5032273;28;20033;-63
2022/05/26 02:11:28;;;;;;;1.98;1.30;;;20.80;39.20;;;;;;5033336;28;20029;-63
2022/05/26 02:14:05;;;;;;;1.23;1.20;;;20.80;39.20;;;;;;5033073;28;20124;-63
2022/05/26 02:16:51;;;;;;;1.13;1.05;;;20.80;39.80;;;;;;5032979;28;20418;-64
2022/05/26 02:19:36;;;;;;;1.30;1.20;;;20.80;39.10;;;;;;5036960;28;20026;-63
2022/05/26 02:22:17;;;;;;;2.22;1.35;;;20.80;39.10;;;;;;5034714;28;20025;-64
2022/05/26 02:25:00;;;;;;;1.42;1.30;;;20.80;39.10;;;;;;5036945;28;20725;-64
2022/05/26 02:27:28;;;;;;;2.33;1.33;;;20.90;39.20;;;;;;5035097;28;20072;-64
2022/05/26 02:29:56;;;;;;;1.50;1.40;;;20.80;39.00;;;;;;5035285;28;20112;-64
2022/05/26 02:32:47;;;;;;;1.30;1.20;;;20.80;39.10;;;;;;5036640;28;20028;-64
2022/05/26 02:35:18;;;;;;;1.02;1.00;;;20.80;39.10;;;;;;5035778;28;20044;-64
2022/05/26 02:37:47;;;;;;;1.25;1.15;;;20.80;39.00;;;;;;5036266;28;20072;-64
2022/05/26 02:40:13;;;;;;;2.08;1.35;;;20.80;39.00;;;;;;5036510;28;20100;-64
2022/05/26 02:42:47;;;;;;;1.20;1.20;;;20.80;39.00;;;;;;5036744;28;20456;-63
2022/05/26 02:45:22;;;;;;;1.77;1.33;;;20.80;38.90;;;;;;5036435;28;20030;-64
2022/05/26 02:48:19;;;;;;;1.38;1.27;;;20.80;39.00;;;;;;5036220;28;20061;-64
2022/05/26 02:51:13;;;;;;;1.58;1.20;;;20.80;38.90;;;;;;5036161;28;20021;-64
2022/05/26 02:53:51;;;;;;;1.98;1.30;;;20.80;38.90;;;;;;5035807;28;20040;-64
2022/05/26 02:56:20;;;;;;;1.33;1.17;;;20.90;39.00;;;;;;5035409;28;20056;-64
2022/05/26 02:59:03;;;;;;;1.63;1.50;;;20.80;38.90;;;;;;5035893;28;20107;-63
2022/05/26 03:01:40;;;;;;;2.03;1.53;;;20.90;39.00;;;;;;5035954;28;20525;-63
2022/05/26 03:04:13;;;;;;;1.35;1.25;;;20.90;38.90;;;;;;5034553;28;20621;-64
2022/05/26 03:07:11;;;;;;;1.27;1.17;;;20.90;38.90;;;;;;5035995;28;20445;-63
2022/05/26 03:09:38;;;;;;;1.85;1.20;;;20.90;38.90;;;;;;5039200;28;20037;-63
2022/05/26 03:12:18;;;;;;;1.45;1.33;;;20.90;38.80;;;;;;5035682;28;20487;-64
2022/05/26 03:14:44;;;;;;;1.30;1.20;;;21.00;38.80;;;;;;5036031;28;20123;-64
2022/05/26 03:17:10;;;;;;;2.22;1.25;;;20.90;38.80;;;;;;5035598;28;20049;-63
2022/05/26 03:19:35;;;;;;;1.15;1.05;;;20.90;38.70;;;;;;5035890;28;20028;-63
2022/05/26 03:22:01;;;;;;;1.00;1.00;;;21.00;38.70;;;;;;5035571;28;20030;-65
2022/05/26 03:24:27;;;;;;;1.33;1.23;;;21.00;38.70;;;;;;5035394;28;20034;-63
2022/05/26 03:26:52;;;;;;;1.30;1.20;;;21.00;38.60;;;;;;5034935;28;20053;-64
2022/05/26 03:29:18;;;;;;;1.58;1.48;;;21.00;38.60;;;;;;5034425;28;20100;-64
2022/05/26 03:31:45;;;;;;;2.55;2.08;;;21.00;38.60;;;;;;5034219;28;20176;-64
2022/05/26 03:42:23;;;;;;;2.17;1.10;;;21.00;38.60;;;;;;5035313;28;20143;-63
2022/05/26 03:44:49;;;;;;;1.48;1.38;;;21.00;38.50;;;;;;5034453;28;20041;-65
2022/05/26 03:47:14;;;;;;;1.20;1.10;;;21.10;38.60;;;;;;5035054;28;20029;-63
2022/05/26 03:49:40;;;;;;;1.30;1.20;;;21.10;38.60;;;;;;5035226;28;20056;-63
2022/05/26 03:52:07;;;;;;;1.40;1.30;;;21.10;38.60;;;;;;5033639;28;20030;-63
2022/05/26 03:54:33;;;;;;;1.23;1.15;;;21.10;38.50;;;;;;5035202;28;20045;-63
2022/05/26 03:56:59;;;;;;;1.05;1.00;;;21.10;38.60;;;;;;5034942;28;20034;-63
2022/05/26 03:59:25;;;;;;;1.02;1.02;;;21.20;38.60;;;;;;5034772;28;20423;-64
2022/05/26 04:01:51;;;;;;;1.95;1.10;;;21.20;38.60;;;;;;5034483;28;20032;-64
2022/05/26 04:04:17;;;;;;;1.00;1.00;;;21.20;38.60;;;;;;5034074;28;20035;-64
2022/05/26 04:06:43;;;;;;;1.35;1.13;;;21.10;38.50;;;;;;5033996;28;20025;-63
2022/05/26 04:09:09;;;;;;;1.20;1.20;;;21.20;38.60;;;;;;5029060;28;20426;-64
2022/05/26 04:11:35;;;;;;;2.85;1.45;;;21.10;38.60;;;;;;5014139;28;20053;-63
2022/05/26 04:14:01;;;;;;;1.05;1.05;;;21.10;38.60;;;;;;5018858;28;20033;-63
2022/05/26 04:16:27;;;;;;;1.40;1.30;;;21.10;38.60;;;;;;5033280;28;20029;-63
2022/05/26 04:18:53;;;;;;;1.15;1.15;;;21.10;38.70;;;;;;5031788;28;20021;-63
2022/05/26 04:21:19;;;;;;;1.60;1.50;;;21.10;38.70;;;;;;5015322;28;20034;-63
2022/05/26 04:23:45;;;;;;;1.50;1.23;;;21.10;38.70;;;;;;5021764;28;20053;-64
2022/05/26 04:26:11;;;;;;;1.30;1.20;;;21.10;38.80;;;;;;5024837;28;20069;-65
2022/05/26 04:28:37;;;;;;;1.42;1.13;;;21.10;38.80;;;;;;5032846;28;20025;-64
2022/05/26 04:31:04;;;;;;;2.60;1.30;;;21.10;38.80;;;;;;5031581;28;20030;-66
2022/05/26 04:33:30;;;;;;;1.27;1.17;;;21.10;39.50;;;;;;5029895;28;20030;-66
2022/05/26 04:35:56;;;;;;;1.48;1.27;;;21.10;38.90;;;;;;5016219;28;20030;-65
2022/05/26 04:38:22;;;;;;;1.38;1.27;;;21.10;38.90;;;;;;5013435;28;20037;-67
2022/05/26 04:41:03;;;;;;;1.77;1.42;;;21.00;38.90;;;;;;5030705;28;20388;-66
2022/05/26 04:43:31;;;;;;;1.10;1.10;;;21.10;39.10;;;;;;5027899;28;20044;-63
2022/05/26 04:45:57;;;;;;;1.45;1.35;;;21.10;39.00;;;;;;5020487;28;20033;-65
2022/05/26 04:48:23;;;;;;;1.38;1.25;;;21.00;39.00;;;;;;5026712;28;20038;-65
2022/05/26 04:50:53;;;;;;;1.55;1.42;;;21.10;39.20;;;;;;5012721;28;20080;-66
2022/05/26 04:53:18;;;;;;;1.42;1.33;;;21.10;39.20;;;;;;5017752;28;20141;-67
2022/05/26 04:55:45;;;;;;;1.50;1.40;;;21.00;39.20;;;;;;5025294;28;20428;-67
2022/05/26 04:58:11;;;;;;;1.40;1.30;;;21.00;39.20;;;;;;5021832;28;20144;-66
2022/05/26 05:00:37;;;;;;;1.30;1.20;;;21.00;39.30;;;;;;5026600;28;20140;-66
2022/05/26 05:03:03;;;;;;;1.35;1.25;;;21.00;39.40;;;;;;5012724;28;20033;-66
2022/05/26 05:05:29;;;;;;;1.05;1.05;;;21.00;39.40;;;;;;5011333;28;20030;-66
2022/05/26 05:07:54;;;;;;;1.80;1.27;;;21.00;39.50;;;;;;5012571;28;20040;-65
2022/05/26 05:10:20;;;;;;;3.30;1.40;;;21.10;39.60;;;;;;5011104;28;20030;-67
2022/05/26 05:12:50;;;;;;;1.50;1.20;;;21.10;39.70;;;;;;5011399;28;20033;-69
2022/05/26 05:15:22;;;;;;;1.55;1.20;;;21.10;39.80;;;;;;5011039;28;20456;-68
2022/05/26 05:17:48;;;;;;;1.90;1.70;;;21.10;39.80;;;;;;5012324;28;20389;-70
2022/05/26 05:20:14;;;;;;;2.00;1.58;;;21.10;39.80;;;;;;5012398;28;20022;-68
2022/05/26 05:23:08;;;;;;;1.75;1.65;;;21.10;39.90;;;;;;5011175;28;20037;-69
2022/05/26 05:25:43;;;;;;;2.35;1.90;;;21.10;40.40;;;;;;5014702;28;20120;-70
2022/05/26 05:28:13;;;;;;;3.88;2.20;;;21.10;40.10;;;;;;5031614;28;20057;-70
2022/05/26 05:31:03;;;;;;;6.13;1.95;;;21.10;40.10;;;;;;5032464;28;20535;-68
2022/05/26 05:33:34;;;;;;;1.95;1.83;;;21.00;40.50;;;;;;5031886;28;20037;-67
2022/05/26 05:36:06;;;;;;;2.40;1.88;;;21.00;40.30;;;;;;5031951;28;20112;-67
2022/05/26 05:38:38;;;;;;;5.88;2.15;;;21.00;40.40;;;;;;5032438;28;20057;-67
2022/05/26 05:41:04;;;;;;;1.60;1.50;;;21.00;40.50;;;;;;5026738;28;20022;-70
2022/05/26 05:43:31;;;;;;;2.50;1.50;;;20.90;40.60;;;;;;5022521;28;20066;-68
2022/05/26 05:45:57;;;;;;;4.05;1.58;;;20.90;40.80;;;;;;5012230;28;20045;-68
2022/05/26 05:48:23;;;;;;;1.50;1.38;;;21.00;40.90;;;;;;5013692;28;20060;-68
2022/05/26 05:50:48;;;;;;;1.63;1.42;;;21.00;41.00;;;;;;5012152;28;20033;-68
2022/05/26 05:53:18;;;;;;;1.75;1.30;;;21.00;41.10;;;;;;5016291;28;20460;-68
2022/05/26 05:55:44;;;;;;;4.25;1.50;;;21.00;41.20;;;;;;5017205;28;20053;-68
2022/05/26 05:58:11;;;;;;;1.92;1.30;;;21.10;41.30;;;;;;5015883;28;20056;-68
2022/05/26 06:00:39;;;;;;;1.55;1.40;;;21.10;41.40;;;;;;5017102;28;20022;-69
2022/05/26 06:03:05;;;;;;;1.45;1.30;;;21.10;41.50;;;;;;5015933;28;20026;-68
2022/05/26 06:05:31;;;;;;;2.55;1.50;;;21.10;41.90;;;;;;5016043;28;20030;-68
2022/05/26 06:07:57;;;;;;;1.30;1.15;;;21.10;42.70;;;;;;5016216;28;20032;-68
2022/05/26 06:10:24;;;;;;;2.38;1.50;;;21.10;42.20;;;;;;5017429;28;20022;-68
2022/05/26 06:12:50;;;;;;;2.28;1.40;;;21.10;42.30;;;;;;5016688;28;20033;-68
2022/05/26 06:15:16;;;;;;;2.20;1.30;;;21.10;42.40;;;;;;5016965;28;20030;-68
2022/05/26 06:17:45;;;;;;;1.38;1.20;;;21.20;42.50;;;;;;5015794;28;20030;-68
2022/05/26 06:20:12;;;;;;;1.35;1.25;;;21.30;42.60;;;;;;5015983;28;20026;-68
2022/05/26 06:22:42;;;;;;;1.38;1.27;;;21.30;42.70;;;;;;5016357;28;20372;-68
2022/05/26 06:25:09;;;;;;;1.40;1.30;;;21.40;43.00;;;;;;5015693;28;20034;-68
2022/05/26 06:30:21;;;;;;;1.40;1.30;;;21.50;43.30;;;;;;5016994;28;20426;-68
2022/05/26 06:38:19;;;;;;;1.75;1.30;;;21.50;43.90;;;;;;5016947;28;20084;-70
2022/05/26 06:40:45;;;;;;;1.42;1.33;;;21.50;44.20;;;;;;5015189;28;20037;-68
2022/05/26 06:43:11;;;;;;;1.33;1.23;;;21.50;44.30;;;;;;5016684;28;20022;-68
2022/05/26 06:45:38;;;;;;;1.65;1.40;;;21.50;44.40;;;;;;5016419;28;20465;-68
2022/05/26 06:48:04;;;;;;;1.65;1.40;;;21.50;44.50;;;;;;5016508;28;20038;-68
2022/05/26 06:50:29;;;;;;;1.63;1.30;;;21.50;44.70;;;;;;5016411;28;20385;-68
2022/05/26 06:52:55;;;;;;;2.20;2.00;;;21.50;44.70;;;;;;5016146;28;20080;-68
2022/05/26 06:55:21;;;;;;;2.13;1.50;;;21.40;45.20;;;;;;5015698;28;20069;-69
2022/05/26 06:57:47;;;;;;;4.78;1.70;;;21.40;45.10;;;;;;5015732;28;20029;-68
2022/05/26 07:00:15;;;;;;;1.90;1.70;;;21.40;45.70;;;;;;5016430;28;20075;-68
2022/05/26 07:02:41;;;;;;;1.92;1.50;;;21.30;46.10;;;;;;5014319;28;20034;-68
2022/05/26 07:05:08;;;;;;;1.50;1.40;;;21.20;46.00;;;;;;5014353;28;20030;-68
2022/05/26 07:07:35;;;;;;;1.52;1.42;;;21.20;46.10;;;;;;5014515;28;20487;-68
2022/05/26 07:10:02;;;;;;;1.52;1.42;;;21.20;46.20;;;;;;5015608;28;20113;-68
2022/05/26 07:12:28;;;;;;;2.60;1.52;;;21.20;46.30;;;;;;5015985;28;20022;-68
2022/05/26 07:14:54;;;;;;;2.55;1.23;;;21.20;46.30;;;;;;5015980;28;20184;-68
2022/05/26 07:17:19;;;;;;;1.23;1.20;;;21.20;46.50;;;;;;5014662;28;20022;-68
2022/05/26 07:19:45;;;;;;;1.40;1.30;;;21.20;46.60;;;;;;5015879;28;20036;-68
2022/05/26 07:22:11;;;;;;;2.00;1.30;;;21.20;46.80;;;;;;5015627;28;20036;-68
2022/05/26 07:24:38;;;;;;;1.60;1.50;;;21.20;46.90;;;;;;5015731;28;20375;-67
2022/05/26 07:27:04;;;;;;;3.25;1.42;;;21.20;47.60;;;;;;5015593;28;20400;-67
2022/05/26 07:29:30;;;;;;;1.60;1.40;;;21.20;47.10;;;;;;5015637;28;20105;-68
2022/05/26 07:31:56;;;;;;;1.50;1.40;;;21.20;47.40;;;;;;5015409;28;20109;-69
2022/05/26 07:34:21;;;;;;;1.40;1.30;;;21.20;47.40;;;;;;5014277;28;20411;-69
2022/05/26 07:42:19;;;;;;;1.65;1.55;;;21.10;47.70;;;;;;5015652;28;20045;-69
2022/05/26 07:44:48;;;;;;;1.70;1.60;;;21.10;48.00;;;;;;5015340;28;20037;-69
2022/05/26 07:47:14;;;;;;;2.80;1.58;;;21.10;48.10;;;;;;5015254;28;20057;-69
2022/05/26 07:49:43;;;;;;;1.58;1.25;;;21.10;48.20;;;;;;5015206;28;20026;-69
2022/05/26 07:52:10;;;;;;;1.67;1.30;;;21.10;48.30;;;;;;5013943;28;20030;-69
2022/05/26 07:54:37;;;;;;;1.20;1.15;;;21.00;48.30;;;;;;5015130;28;20183;-69
2022/05/26 07:57:04;;;;;;;2.42;1.33;;;21.10;48.40;;;;;;5013854;28;20125;-69
2022/05/26 07:59:30;;;;;;;2.10;1.40;;;21.10;48.40;;;;;;5015011;28;20029;-69
2022/05/26 08:01:56;;;;;;;1.50;1.40;;;21.10;48.70;;;;;;5013864;28;20087;-69
2022/05/26 08:04:22;;;;;;;1.45;1.35;;;21.10;48.60;;;;;;5014795;28;20108;-68
2022/05/26 08:06:49;;;;;;;1.45;1.25;;;21.10;48.70;;;;;;5014943;28;20026;-69
2022/05/26 08:09:17;;;;;;;1.65;1.35;;;21.10;48.70;;;;;;5015030;28;20036;-69
2022/05/26 08:11:43;;;;;;;1.45;1.35;;;21.20;48.90;;;;;;5014816;28;20103;-69
2022/05/26 08:14:10;;;;;;;2.00;1.50;;;21.20;49.00;;;;;;5014349;28;20065;-69
2022/05/26 08:16:36;;;;;;;1.55;1.45;;;21.20;49.20;;;;;;5012654;28;20026;-69
2022/05/26 08:19:02;;;;;;;1.23;1.13;;;21.20;49.20;;;;;;5014867;28;20018;-69
2022/05/26 08:21:28;;;;;;;1.23;1.13;;;21.20;49.30;;;;;;5014839;28;20190;-69
2022/05/26 08:23:54;;;;;;;1.48;1.38;;;21.20;49.30;;;;;;5014659;28;20037;-69
2022/05/26 08:26:20;;;;;;;3.15;1.50;;;21.20;49.30;;;;;;5014690;28;20046;-69
2022/05/26 08:28:46;;;;;;;1.40;1.30;;;21.20;49.30;;;;;;5014704;28;20456;-69
2022/05/26 08:31:15;;;;;;;1.92;1.48;;;21.30;49.40;;;;;;5014234;28;20388;-69
2022/05/26 08:33:42;;;;;;;1.98;1.58;;;21.30;49.40;;;;;;5020772;28;20034;-69
2022/05/26 08:36:11;;;;;;;1.83;1.55;;;21.40;49.50;;;;;;5033473;28;20029;-69
2022/05/26 08:38:37;;;;;;;2.75;1.48;;;21.40;49.60;;;;;;5033682;28;20026;-69
2022/05/26 08:41:04;;;;;;;1.67;1.58;;;21.50;49.60;;;;;;5034376;28;20059;-69
2022/05/26 08:43:37;;;;;;;2.42;1.60;;;21.50;49.80;;;;;;5034205;28;20029;-69
2022/05/26 08:46:07;;;;;;;1.70;1.60;;;21.50;50.00;;;;;;5032871;28;20435;-69
2022/05/26 08:48:38;;;;;;;2.13;1.65;;;21.50;50.10;;;;;;5033164;28;20025;-69
2022/05/26 08:51:05;;;;;;;2.00;1.65;;;21.40;50.10;;;;;;5033889;28;20036;-69
2022/05/26 08:53:37;;;;;;;2.00;1.35;;;21.40;50.30;;;;;;5033711;28;20041;-69
2022/05/26 08:56:03;;;;;;;1.58;1.30;;;21.40;50.80;;;;;;5032307;28;20025;-69
2022/05/26 08:58:43;;;;;;;1.63;1.52;;;21.30;50.40;;;;;;5033616;28;20083;-69
2022/05/26 09:01:12;;;;;;;1.90;1.70;;;21.30;51.20;;;;;;5033663;28;20079;-67
2022/05/26 09:03:38;;;;;;;2.70;1.90;;;21.20;50.90;;;;;;5033662;28;20387;-67
2022/05/26 09:06:07;;;;;;;1.75;1.65;;;21.20;51.00;;;;;;5033586;28;20036;-68
2022/05/26 09:14:30;;;;;;;1.63;1.52;;;21.00;51.50;;;;;;5033511;28;20459;-68
2022/05/26 09:17:07;;;;;;;1.35;1.25;;;21.00;52.00;;;;;;5033310;28;20036;-69
2022/05/26 09:19:58;;;;;;;2.25;1.60;;;20.90;52.20;;;;;;5032128;28;20026;-69
2022/05/26 09:22:55;;;;;;;2.35;1.58;;;20.90;55.30;;;;;;5033469;28;20029;-69
2022/05/26 09:25:39;;;;;;;2.28;1.70;;;20.90;53.00;;;;;;5033632;28;20029;-69
2022/05/26 09:28:29;;;;;;;1.70;1.60;;;20.90;53.10;;;;;;5038359;28;20041;-69
2022/05/26 09:31:31;;;;;;;2.08;1.60;;;20.90;52.10;;;;;;5036688;28;20159;-69
2022/05/26 09:34:15;;;;;;;1.90;1.60;;;20.90;52.20;;;;;;5038221;28;20136;-69
2022/05/26 09:36:54;;;;;;;1.48;1.38;;;20.90;52.20;;;;;;5037567;28;20095;-68
2022/05/26 09:39:27;;;;;;;1.58;1.48;;;20.90;52.30;;;;;;5037313;28;20021;-69
2022/05/26 09:41:57;;;;;;;1.55;1.45;;;20.90;52.10;;;;;;5036264;28;20030;-69
2022/05/26 09:44:23;;;;;;;2.00;1.80;;;21.00;52.30;;;;;;5036815;28;20033;-69
2022/05/26 09:46:52;;;;;;;1.50;1.40;;;21.00;52.30;;;;;;5037465;28;20376;-68
2022/05/26 09:49:23;;;;;;;1.80;1.60;;;21.00;52.40;;;;;;5037259;28;20021;-68
2022/05/26 09:51:50;;;;;;;1.98;1.60;;;21.00;53.20;;;;;;5037263;28;20048;-69
2022/05/26 09:54:34;;;;;;;1.70;1.60;;;21.00;52.50;;;;;;5037186;28;20033;-68
2022/05/26 09:57:12;;;;;;;;;;;21.10;53.20;;;;;;5038218;28;20414;-68
2022/05/26 09:59:42;;;;;;;1.15;1.05;;;21.20;53.90;;;;;;5037462;28;19911;-70
2022/05/26 10:02:35;;;;;;;1.25;1.15;;;21.20;52.30;;;;;;5036112;28;20025;-70
2022/05/26 10:05:19;;;;;;;1.95;1.75;;;21.30;53.10;;;;;;5036973;28;20052;-67
2022/05/26 10:08:16;;;;;;;1.50;1.40;;;21.30;52.40;;;;;;5037153;28;20029;-68
2022/05/26 10:11:00;;;;;;;1.70;1.60;;;21.30;52.60;;;;;;5038499;28;20103;-69
2022/05/26 10:13:40;;;;;;;3.15;1.50;;;21.30;53.20;;;;;;5037133;28;20353;-69
2022/05/26 10:16:16;;;;;;;3.83;1.60;;;21.30;52.60;;;;;;5036801;28;20034;-69
2022/05/26 10:19:17;;;;;;;1.60;1.50;;;21.40;52.90;;;;;;5036902;28;20029;-68
2022/05/26 10:22:08;;;;;;;2.20;1.70;;;21.40;53.60;;;;;;5046139;28;20107;-68
2022/05/26 10:24:58;;;;;;;1.58;1.48;;;21.60;53.30;;;;;;5036846;28;20069;-68
2022/05/26 10:27:37;;;;;;;2.33;1.80;;;21.80;52.80;;;;;;5035987;28;20124;-69
2022/05/26 10:30:31;;;;;;;2.05;1.70;;;22.00;52.70;;;;;;5036471;28;20130;-68
2022/05/26 10:33:30;;;;;;;1.60;1.50;;;22.20;52.90;;;;;;5035624;28;20392;-69
2022/05/26 10:36:25;;;;;;;1.95;1.60;;;22.30;52.80;;;;;;5036448;28;20030;-68
2022/05/26 10:39:15;;;;;;;2.15;1.50;;;22.40;53.60;;;;;;5035731;28;20038;-67
2022/05/26 10:41:48;;;;;;;2.00;1.80;;;22.50;52.60;;;;;;5036130;28;20064;-68
2022/05/26 10:44:13;;;;;;;2.03;1.85;;;22.60;52.30;;;;;;5035067;28;20508;-69
2022/05/26 10:46:44;;;;;;;1.70;1.45;;;22.70;52.10;;;;;;5036657;28;20096;-68
2022/05/26 10:49:25;;;;;;;2.42;1.70;;;22.80;52.10;;;;;;5035223;28;20029;-68
2022/05/26 10:52:01;;;;;;;1.52;1.45;;;22.90;52.20;;;;;;5036386;28;20032;-68
2022/05/26 10:54:44;;;;;;;1.92;1.77;;;22.90;52.20;;;;;;5018754;28;20030;-68
2022/05/26 10:57:38;;;;;;;1.50;1.40;;;23.00;52.50;;;;;;5035856;28;20033;-68
2022/05/26 11:00:07;;;;;;;1.90;1.52;;;23.10;52.50;;;;;;5034806;28;20029;-67
2022/05/26 11:02:45;;;;;;;1.75;1.65;;;23.20;52.10;;;;;;5035801;28;20026;-71
2022/05/26 11:05:38;;;;;;;1.75;1.65;;;23.10;52.10;;;;;;5036092;28;20066;-69
2022/05/26 11:08:32;;;;;;;1.98;1.55;;;23.20;53.10;;;;;;5035549;28;20044;-69
2022/05/26 11:11:16;;;;;;;2.30;1.40;;;23.10;52.70;;;;;;5035826;28;20030;-71
2022/05/26 11:14:03;;;;;;;1.48;1.38;;;23.10;52.40;;;;;;5034123;28;20037;-68
2022/05/26 11:19:54;;;;;;;1.50;1.40;;;23.20;53.10;;;;;;5036829;28;20037;-68
2022/05/26 11:22:20;;;;;;;1.67;1.52;;;23.20;52.60;;;;;;5035581;28;20132;-68
2022/05/26 11:24:52;;;;;;;1.80;1.35;;;23.20;52.30;;;;;;5034636;28;20076;-69
2022/05/26 11:27:36;;;;;;;1.40;1.30;;;23.30;52.40;;;;;;5035233;28;20503;-69
2022/05/26 11:30:07;;;;;;;;;;;23.30;52.60;;;;;;5035912;28;20057;-68
2022/05/26 11:38:33;;;;;;;1.20;1.10;;;23.40;51.70;;;;;;5035028;28;20060;-68
2022/05/26 11:41:03;;;;;;;1.50;1.23;;;23.30;51.90;;;;;;5035038;28;20507;-69
2022/05/26 11:43:30;;;;;;;1.27;1.17;;;23.20;51.60;;;;;;5034287;28;20032;-66
2022/05/26 11:45:57;;;;;;;2.38;1.30;;;23.20;51.60;;;;;;5033702;28;20041;-66
2022/05/26 11:48:32;;;;;;;1.58;1.23;;;23.30;51.60;;;;;;5035160;28;20041;-66
2022/05/26 11:51:29;;;;;;;0.85;0.85;;;23.30;51.50;;;;;;5032742;28;20040;-66
2022/05/26 11:53:56;;;;;;;3.08;1.10;;;23.20;51.40;;;;;;5035021;28;20034;-66
2022/05/26 11:56:25;;;;;;;1.00;1.00;;;23.20;51.20;;;;;;5033572;28;20030;-66
2022/05/26 11:59:23;;;;;;;1.25;1.02;;;23.20;51.00;;;;;;5033281;28;20033;-66
2022/05/26 12:02:07;;;;;;;0.98;0.98;;;23.30;51.00;;;;;;5034780;28;20373;-67
2022/05/26 12:04:38;;;;;;;0.90;0.90;;;23.20;50.70;;;;;;5034828;28;20034;-66
2022/05/26 12:07:21;;;;;;;1.05;1.05;;;23.30;50.60;;;;;;5033375;28;20380;-66
2022/05/26 12:09:55;;;;;;;1.30;1.00;;;23.30;50.40;;;;;;5034344;28;20025;-67
2022/05/26 12:12:23;;;;;;;;;;;23.40;50.30;;;;;;5034723;28;20025;-66
2022/05/26 12:14:57;;;;;;;1.20;1.10;;;23.40;50.20;;;;;;5032827;28;19917;-66
2022/05/26 12:17:49;;;;;;;3.83;1.00;;;23.50;50.10;;;;;;5033373;28;20021;-67
2022/05/26 12:20:15;;;;;;;1.25;1.00;;;23.60;49.90;;;;;;5034260;28;20025;-66
2022/05/26 12:22:50;;;;;;;0.90;0.82;;;23.60;49.80;;;;;;5034117;28;20587;-66
2022/05/26 12:25:25;;;;;;;1.63;0.90;;;23.60;49.70;;;;;;5034137;28;20055;-66
2022/05/26 12:28:00;;;;;;;0.80;0.80;;;23.70;49.80;;;;;;5034300;28;20069;-66
2022/05/26 12:30:34;;;;;;;0.90;0.90;;;23.80;49.40;;;;;;5032666;28;20061;-67
2022/05/26 12:33:19;;;;;;;1.02;1.02;;;23.90;49.40;;;;;;5032839;28;20488;-66
2022/05/26 12:36:09;;;;;;;1.45;1.08;;;23.90;49.20;;;;;;5034326;28;20538;-66
2022/05/26 12:38:49;;;;;;;0.85;0.85;;;24.00;49.10;;;;;;5032489;28;20026;-66
2022/05/26 12:41:17;;;;;;;0.88;0.88;;;24.20;49.00;;;;;;5033720;28;20076;-66
2022/05/26 12:43:54;;;;;;;1.10;1.00;;;24.20;48.80;;;;;;5032564;28;20036;-66
2022/05/26 12:46:43;;;;;;;1.05;0.95;;;24.40;48.60;;;;;;5032778;28;20029;-66
2022/05/26 12:49:30;;;;;;;0.88;0.80;;;24.40;48.40;;;;;;5032549;28;20041;-66
2022/05/26 12:52:15;;;;;;;1.10;1.00;;;24.50;48.20;;;;;;5033972;28;20025;-66
2022/05/26 12:54:51;;;;;;;;;;;24.60;48.10;;;;;;5033883;28;20365;-67
2022/05/26 12:57:24;;;;;;;0.80;0.80;;;24.70;47.90;;;;;;5032514;28;19916;-66
2022/05/26 12:59:49;;;;;;;0.80;0.80;;;24.80;47.90;;;;;;5032328;28;20083;-67
2022/05/26 13:02:16;;;;;;;0.60;0.60;;;24.90;47.70;;;;;;5033221;28;20033;-66
2022/05/26 13:04:43;;;;;;;0.98;0.63;;;25.00;47.50;;;;;;5032825;28;20379;-66
2022/05/26 13:07:11;;;;;;;0.82;0.77;;;25.10;47.50;;;;;;5032500;28;20056;-66
2022/05/26 13:09:45;;;;;;;0.63;0.63;;;25.20;47.30;;;;;;5033631;28;20464;-67
2022/05/26 13:12:21;;;;;;;0.88;0.80;;;25.40;47.10;;;;;;5032415;28;20028;-66
2022/05/26 13:14:53;;;;;;;0.75;0.65;;;25.50;46.70;;;;;;5032527;28;20495;-65
2022/05/26 13:17:28;;;;;;;1.02;0.70;;;25.70;46.50;;;;;;5032257;28;20041;-66
2022/05/26 13:19:59;;;;;;;0.70;0.70;;;26.00;46.30;;;;;;5033602;28;20041;-66
2022/05/26 13:22:25;;;;;;;1.08;0.73;;;26.20;46.00;;;;;;5032418;28;20052;-66
2022/05/26 13:25:01;;;;;;;1.27;0.70;;;26.30;45.70;;;;;;5033374;28;20423;-67
2022/05/26 13:27:48;;;;;;;0.95;0.75;;;26.50;45.40;;;;;;5033263;28;20060;-66
2022/05/26 13:33:07;;;;;;;2.40;0.80;;;26.50;45.00;;;;;;5033048;28;20491;-67
2022/05/26 13:35:39;;;;;;;0.68;0.68;;;26.50;44.90;;;;;;5033126;28;20108;-65
2022/05/26 13:38:17;;;;;;;0.70;0.70;;;26.60;45.00;;;;;;5031819;28;20029;-65
2022/05/26 13:40:43;;;;;;;0.80;0.80;;;27.00;45.00;;;;;;5032975;28;20051;-65
2022/05/26 13:43:10;;;;;;;0.85;0.70;;;27.60;44.70;;;;;;5015439;28;20025;-67
2022/05/26 13:45:36;;;;;;;0.95;0.60;;;28.30;44.20;;;;;;5031518;28;20036;-67
2022/05/26 13:48:38;;;;;;;0.82;0.82;;;28.70;43.30;;;;;;5031714;28;20124;-66
2022/05/26 13:51:15;;;;;;;0.80;0.80;;;28.80;41.90;;;;;;5031761;28;20037;-66
2022/05/26 13:54:19;;;;;;;0.50;0.50;;;28.60;42.30;;;;;;5031909;28;20033;-67
2022/05/26 13:56:47;;;;;;;0.83;0.70;;;28.50;42.40;;;;;;5032378;28;20029;-66
2022/05/26 13:59:14;;;;;;;0.95;0.68;;;28.70;43.50;;;;;;5031880;28;20022;-66